sensor_id;sensor_type;location;lat;lon;timestamp;pressure;altitude;pressure_sealevel;temperature;humidity
81545;BME280;70990;50.618;7.346;2023-10-31T00:00:09;96449.34;;;10.65;86.00
81545;BME280;70990;50.618;7.346;2023-10-31T00:02:36;96440.91;;;10.59;85.87
81545;BME280;70990;50.618;7.346;2023-10-31T00:05:03;96448.25;;;10.62;85.02
81545;BME280;70990;50.618;7.346;2023-10-31T00:07:30;96450.13;;;10.65;84.70
81545;BME280;70990;50.618;7.346;2023-10-31T00:09:56;96452.38;;;10.48;84.59
81545;BME280;70990;50.618;7.346;2023-10-31T00:12:23;96456.97;;;10.51;84.38
81545;BME280;70990;50.618;7.346;2023-10-31T00:14:49;96459.63;;;10.64;83.95
81545;BME280;70990;50.618;7.346;2023-10-31T00:17:16;96461.13;;;10.47;84.94
81545;BME280;70990;50.618;7.346;2023-10-31T00:19:42;96462.84;;;10.63;84.03
81545;BME280;70990;50.618;7.346;2023-10-31T00:22:09;96468.03;;;10.51;83.59
81545;BME280;70990;50.618;7.346;2023-10-31T00:24:36;96471.09;;;10.54;83.69
81545;BME280;70990;50.618;7.346;2023-10-31T00:27:02;96469.91;;;10.64;84.08
81545;BME280;70990;50.618;7.346;2023-10-31T00:29:29;96475.75;;;10.75;83.51
81545;BME280;70990;50.618;7.346;2023-10-31T00:31:55;96481.38;;;10.53;84.08
81545;BME280;70990;50.618;7.346;2023-10-31T00:34:22;96484.47;;;10.55;83.21
81545;BME280;70990;50.618;7.346;2023-10-31T00:36:49;96482.50;;;10.65;83.18
81545;BME280;70990;50.618;7.346;2023-10-31T00:39:16;96476.03;;;10.59;82.28
81545;BME280;70990;50.618;7.346;2023-10-31T00:41:45;96461.44;;;10.58;83.33
81545;BME280;70990;50.618;7.346;2023-10-31T00:44:12;96455.16;;;10.58;82.35
81545;BME280;70990;50.618;7.346;2023-10-31T00:46:39;96466.47;;;10.50;82.01
81545;BME280;70990;50.618;7.346;2023-10-31T00:49:05;96462.00;;;10.44;82.52
81545;BME280;70990;50.618;7.346;2023-10-31T00:51:32;96466.34;;;10.54;81.67
81545;BME280;70990;50.618;7.346;2023-10-31T00:53:59;96470.00;;;10.51;81.81
81545;BME280;70990;50.618;7.346;2023-10-31T00:56:25;96472.00;;;10.41;81.76
81545;BME280;70990;50.618;7.346;2023-10-31T00:58:52;96483.31;;;10.34;81.46
81545;BME280;70990;50.618;7.346;2023-10-31T01:01:18;96469.84;;;10.45;81.28
81545;BME280;70990;50.618;7.346;2023-10-31T01:03:45;96478.00;;;10.49;81.58
81545;BME280;70990;50.618;7.346;2023-10-31T01:06:12;96478.78;;;10.59;81.62
81545;BME280;70990;50.618;7.346;2023-10-31T01:08:38;96488.28;;;10.48;81.77
81545;BME280;70990;50.618;7.346;2023-10-31T01:11:05;96482.44;;;10.46;81.67
81545;BME280;70990;50.618;7.346;2023-10-31T01:13:32;96483.94;;;10.38;82.17
81545;BME280;70990;50.618;7.346;2023-10-31T01:15:59;96505.28;;;10.47;82.02
81545;BME280;70990;50.618;7.346;2023-10-31T01:18:26;96500.53;;;10.47;81.73
81545;BME280;70990;50.618;7.346;2023-10-31T01:20:53;96505.41;;;10.43;81.90
81545;BME280;70990;50.618;7.346;2023-10-31T01:23:19;96512.47;;;10.44;82.86
81545;BME280;70990;50.618;7.346;2023-10-31T01:25:46;96507.22;;;10.37;82.61
81545;BME280;70990;50.618;7.346;2023-10-31T01:28:13;96502.53;;;10.47;82.19
81545;BME280;70990;50.618;7.346;2023-10-31T01:30:40;96508.50;;;10.45;82.19
81545;BME280;70990;50.618;7.346;2023-10-31T01:33:06;96511.94;;;10.28;82.79
81545;BME280;70990;50.618;7.346;2023-10-31T01:35:33;96509.03;;;10.31;82.27
81545;BME280;70990;50.618;7.346;2023-10-31T01:37:59;96504.94;;;10.36;82.36
81545;BME280;70990;50.618;7.346;2023-10-31T01:40:26;96506.44;;;10.06;83.01
81545;BME280;70990;50.618;7.346;2023-10-31T01:42:54;96518.19;;;10.19;83.17
81545;BME280;70990;50.618;7.346;2023-10-31T01:45:21;96513.06;;;10.08;82.96
81545;BME280;70990;50.618;7.346;2023-10-31T01:47:48;96528.38;;;10.09;83.03
81545;BME280;70990;50.618;7.346;2023-10-31T01:50:16;96523.56;;;10.01;83.32
81545;BME280;70990;50.618;7.346;2023-10-31T01:52:43;96526.66;;;10.03;82.93
81545;BME280;70990;50.618;7.346;2023-10-31T01:55:10;96527.56;;;10.00;83.27
81545;BME280;70990;50.618;7.346;2023-10-31T01:57:37;96526.78;;;9.99;82.70
81545;BME280;70990;50.618;7.346;2023-10-31T02:00:04;96522.19;;;9.96;83.56
81545;BME280;70990;50.618;7.346;2023-10-31T02:02:37;96537.97;;;9.96;83.67
81545;BME280;70990;50.618;7.346;2023-10-31T02:05:06;96537.69;;;10.03;82.98
81545;BME280;70990;50.618;7.346;2023-10-31T02:07:33;96531.47;;;9.90;82.51
81545;BME280;70990;50.618;7.346;2023-10-31T02:10:00;96538.22;;;9.89;82.71
81545;BME280;70990;50.618;7.346;2023-10-31T02:12:36;96538.16;;;9.80;82.81
81545;BME280;70990;50.618;7.346;2023-10-31T02:15:03;96535.84;;;9.78;83.03
81545;BME280;70990;50.618;7.346;2023-10-31T02:17:30;96534.63;;;9.79;82.89
81545;BME280;70990;50.618;7.346;2023-10-31T02:19:57;96533.72;;;9.60;83.41
81545;BME280;70990;50.618;7.346;2023-10-31T02:22:24;96522.03;;;9.56;83.23
81545;BME280;70990;50.618;7.346;2023-10-31T02:24:51;96522.41;;;9.46;83.88
81545;BME280;70990;50.618;7.346;2023-10-31T02:27:17;96516.53;;;9.56;83.50
81545;BME280;70990;50.618;7.346;2023-10-31T02:29:44;96527.94;;;9.46;84.13
81545;BME280;70990;50.618;7.346;2023-10-31T02:32:10;96530.63;;;9.37;84.27
81545;BME280;70990;50.618;7.346;2023-10-31T02:34:37;96533.72;;;9.26;84.85
81545;BME280;70990;50.618;7.346;2023-10-31T02:37:04;96521.16;;;9.25;84.65
81545;BME280;70990;50.618;7.346;2023-10-31T02:39:31;96527.44;;;9.25;84.65
81545;BME280;70990;50.618;7.346;2023-10-31T02:41:57;96538.44;;;9.38;83.56
81545;BME280;70990;50.618;7.346;2023-10-31T02:44:24;96530.09;;;9.29;83.30
81545;BME280;70990;50.618;7.346;2023-10-31T02:46:50;96530.19;;;9.25;83.50
81545;BME280;70990;50.618;7.346;2023-10-31T02:49:17;96534.94;;;9.25;83.68
81545;BME280;70990;50.618;7.346;2023-10-31T02:51:43;96521.09;;;9.16;84.18
81545;BME280;70990;50.618;7.346;2023-10-31T02:54:10;96530.09;;;9.29;84.14
81545;BME280;70990;50.618;7.346;2023-10-31T02:56:38;96530.88;;;9.29;83.97
81545;BME280;70990;50.618;7.346;2023-10-31T02:59:05;96533.00;;;9.13;84.35
81545;BME280;70990;50.618;7.346;2023-10-31T03:01:32;96534.31;;;9.21;84.62
81545;BME280;70990;50.618;7.346;2023-10-31T03:03:59;96531.59;;;8.96;85.00
81545;BME280;70990;50.618;7.346;2023-10-31T03:06:25;96537.72;;;9.12;84.48
81545;BME280;70990;50.618;7.346;2023-10-31T03:08:52;96540.41;;;9.03;84.46
81545;BME280;70990;50.618;7.346;2023-10-31T03:11:25;96542.91;;;9.23;84.13
81545;BME280;70990;50.618;7.346;2023-10-31T03:13:53;96545.31;;;9.21;84.21
81545;BME280;70990;50.618;7.346;2023-10-31T03:16:19;96543.09;;;9.28;84.31
81545;BME280;70990;50.618;7.346;2023-10-31T03:18:47;96541.00;;;9.32;84.08
81545;BME280;70990;50.618;7.346;2023-10-31T03:21:13;96544.28;;;9.40;84.00
81545;BME280;70990;50.618;7.346;2023-10-31T03:23:46;96540.31;;;9.41;83.88
81545;BME280;70990;50.618;7.346;2023-10-31T03:26:12;96548.44;;;9.45;83.87
81545;BME280;70990;50.618;7.346;2023-10-31T03:28:39;96561.25;;;9.39;83.91
81545;BME280;70990;50.618;7.346;2023-10-31T03:31:06;96555.34;;;9.27;84.48
81545;BME280;70990;50.618;7.346;2023-10-31T03:33:32;96559.19;;;9.30;84.68
81545;BME280;70990;50.618;7.346;2023-10-31T03:35:59;96557.66;;;9.29;85.06
81545;BME280;70990;50.618;7.346;2023-10-31T03:38:25;96561.00;;;9.46;84.57
81545;BME280;70990;50.618;7.346;2023-10-31T03:40:53;96563.19;;;9.51;84.30
81545;BME280;70990;50.618;7.346;2023-10-31T03:43:20;96561.91;;;9.43;84.59
81545;BME280;70990;50.618;7.346;2023-10-31T03:45:47;96568.13;;;9.56;84.25
81545;BME280;70990;50.618;7.346;2023-10-31T03:48:14;96571.50;;;9.38;84.40
81545;BME280;70990;50.618;7.346;2023-10-31T03:50:40;96563.00;;;9.45;83.81
81545;BME280;70990;50.618;7.346;2023-10-31T03:53:07;96569.91;;;9.50;83.85
81545;BME280;70990;50.618;7.346;2023-10-31T03:55:34;96579.88;;;9.47;83.77
81545;BME280;70990;50.618;7.346;2023-10-31T03:58:00;96578.41;;;9.55;83.58
81545;BME280;70990;50.618;7.346;2023-10-31T04:00:27;96589.50;;;9.43;84.75
81545;BME280;70990;50.618;7.346;2023-10-31T04:02:53;96591.00;;;9.44;84.51
81545;BME280;70990;50.618;7.346;2023-10-31T04:05:20;96587.81;;;9.45;84.65
81545;BME280;70990;50.618;7.346;2023-10-31T04:07:48;96590.94;;;9.35;85.40
81545;BME280;70990;50.618;7.346;2023-10-31T04:10:17;96604.13;;;9.52;84.83
81545;BME280;70990;50.618;7.346;2023-10-31T04:12:44;96598.59;;;9.52;84.41
81545;BME280;70990;50.618;7.346;2023-10-31T04:15:11;96593.56;;;9.38;85.29
81545;BME280;70990;50.618;7.346;2023-10-31T04:17:38;96596.53;;;9.31;85.38
81545;BME280;70990;50.618;7.346;2023-10-31T04:20:05;96591.97;;;9.50;84.71
81545;BME280;70990;50.618;7.346;2023-10-31T04:22:32;96600.94;;;9.41;84.45
81545;BME280;70990;50.618;7.346;2023-10-31T04:24:58;96608.75;;;9.55;83.98
81545;BME280;70990;50.618;7.346;2023-10-31T04:27:25;96606.88;;;9.52;84.20
81545;BME280;70990;50.618;7.346;2023-10-31T04:29:51;96609.44;;;9.47;84.82
81545;BME280;70990;50.618;7.346;2023-10-31T04:32:18;96619.03;;;9.42;84.74
81545;BME280;70990;50.618;7.346;2023-10-31T04:34:44;96615.16;;;9.52;84.28
81545;BME280;70990;50.618;7.346;2023-10-31T04:37:11;96612.81;;;9.51;84.67
81545;BME280;70990;50.618;7.346;2023-10-31T04:39:38;96607.31;;;9.51;84.53
81545;BME280;70990;50.618;7.346;2023-10-31T04:42:04;96613.50;;;9.55;84.35
81545;BME280;70990;50.618;7.346;2023-10-31T04:44:31;96614.28;;;9.55;84.62
81545;BME280;70990;50.618;7.346;2023-10-31T04:46:58;96613.59;;;9.51;84.87
81545;BME280;70990;50.618;7.346;2023-10-31T04:49:25;96615.47;;;9.54;84.76
81545;BME280;70990;50.618;7.346;2023-10-31T04:51:51;96615.50;;;9.42;85.03
81545;BME280;70990;50.618;7.346;2023-10-31T04:54:18;96616.69;;;9.53;84.60
81545;BME280;70990;50.618;7.346;2023-10-31T04:56:45;96617.00;;;9.68;83.82
81545;BME280;70990;50.618;7.346;2023-10-31T04:59:13;96618.75;;;9.62;83.89
81545;BME280;70990;50.618;7.346;2023-10-31T05:01:39;96617.44;;;9.66;83.74
81545;BME280;70990;50.618;7.346;2023-10-31T05:04:06;96619.28;;;9.69;83.73
81545;BME280;70990;50.618;7.346;2023-10-31T05:06:39;96622.59;;;9.64;84.49
81545;BME280;70990;50.618;7.346;2023-10-31T05:09:05;96624.50;;;9.67;83.64
81545;BME280;70990;50.618;7.346;2023-10-31T05:11:32;96630.00;;;9.67;84.18
81545;BME280;70990;50.618;7.346;2023-10-31T05:13:59;96639.78;;;9.68;84.26
81545;BME280;70990;50.618;7.346;2023-10-31T05:16:26;96639.78;;;9.68;84.12
81545;BME280;70990;50.618;7.346;2023-10-31T05:18:53;96643.91;;;9.64;84.22
81545;BME280;70990;50.618;7.346;2023-10-31T05:21:19;96650.38;;;9.70;84.56
81545;BME280;70990;50.618;7.346;2023-10-31T05:23:46;96647.00;;;9.66;85.98
81545;BME280;70990;50.618;7.346;2023-10-31T05:26:13;96658.63;;;9.48;86.64
81545;BME280;70990;50.618;7.346;2023-10-31T05:28:40;96655.31;;;9.41;87.11
81545;BME280;70990;50.618;7.346;2023-10-31T05:31:07;96653.50;;;9.59;86.39
81545;BME280;70990;50.618;7.346;2023-10-31T05:33:33;96652.31;;;9.60;86.70
81545;BME280;70990;50.618;7.346;2023-10-31T05:36:00;96652.41;;;9.57;86.84
81545;BME280;70990;50.618;7.346;2023-10-31T05:38:27;96655.53;;;9.46;87.09
81545;BME280;70990;50.618;7.346;2023-10-31T05:40:54;96656.94;;;9.51;86.92
81545;BME280;70990;50.618;7.346;2023-10-31T05:43:20;96665.53;;;9.53;87.40
81545;BME280;70990;50.618;7.346;2023-10-31T05:45:47;96663.63;;;9.62;86.23
81545;BME280;70990;50.618;7.346;2023-10-31T05:48:14;96668.50;;;9.58;86.43
81545;BME280;70990;50.618;7.346;2023-10-31T05:50:42;96665.41;;;9.56;86.26
81545;BME280;70990;50.618;7.346;2023-10-31T05:53:09;96662.00;;;9.52;86.52
81545;BME280;70990;50.618;7.346;2023-10-31T05:55:38;96665.97;;;9.51;86.47
81545;BME280;70990;50.618;7.346;2023-10-31T05:58:05;96679.00;;;9.38;86.58
81545;BME280;70990;50.618;7.346;2023-10-31T06:00:32;96685.97;;;9.55;86.02
81545;BME280;70990;50.618;7.346;2023-10-31T06:02:59;96689.81;;;9.45;86.05
81545;BME280;70990;50.618;7.346;2023-10-31T06:05:26;96686.59;;;9.59;85.30
81545;BME280;70990;50.618;7.346;2023-10-31T06:07:52;96695.63;;;9.73;85.06
81545;BME280;70990;50.618;7.346;2023-10-31T06:10:19;96696.97;;;9.55;85.79
81545;BME280;70990;50.618;7.346;2023-10-31T06:12:45;96690.38;;;9.40;85.86
81545;BME280;70990;50.618;7.346;2023-10-31T06:15:14;96688.44;;;9.62;85.71
81545;BME280;70990;50.618;7.346;2023-10-31T06:17:40;96693.69;;;9.48;86.00
81545;BME280;70990;50.618;7.346;2023-10-31T06:20:08;96694.22;;;9.68;85.87
81545;BME280;70990;50.618;7.346;2023-10-31T06:22:35;96699.06;;;9.64;85.85
81545;BME280;70990;50.618;7.346;2023-10-31T06:25:02;96708.75;;;9.68;85.24
81545;BME280;70990;50.618;7.346;2023-10-31T06:27:28;96700.19;;;9.54;85.60
81545;BME280;70990;50.618;7.346;2023-10-31T06:29:55;96703.47;;;9.61;85.40
81545;BME280;70990;50.618;7.346;2023-10-31T06:32:41;96716.38;;;9.64;84.79
81545;BME280;70990;50.618;7.346;2023-10-31T06:35:08;96713.63;;;9.64;85.05
81545;BME280;70990;50.618;7.346;2023-10-31T06:37:34;96722.53;;;9.68;84.79
81545;BME280;70990;50.618;7.346;2023-10-31T06:40:01;96727.19;;;9.59;84.46
81545;BME280;70990;50.618;7.346;2023-10-31T06:42:30;96735.25;;;9.66;84.08
81545;BME280;70990;50.618;7.346;2023-10-31T06:44:56;96726.75;;;9.60;84.94
81545;BME280;70990;50.618;7.346;2023-10-31T06:47:23;96729.38;;;9.64;84.10
81545;BME280;70990;50.618;7.346;2023-10-31T06:49:49;96735.78;;;9.74;84.09
81545;BME280;70990;50.618;7.346;2023-10-31T06:52:16;96729.94;;;9.59;84.02
81545;BME280;70990;50.618;7.346;2023-10-31T06:54:42;96740.53;;;9.73;82.89
81545;BME280;70990;50.618;7.346;2023-10-31T06:57:09;96745.94;;;9.64;83.74
81545;BME280;70990;50.618;7.346;2023-10-31T06:59:38;96747.34;;;9.56;83.03
81545;BME280;70990;50.618;7.346;2023-10-31T07:02:08;96757.63;;;9.68;83.43
81545;BME280;70990;50.618;7.346;2023-10-31T07:04:34;96756.75;;;9.58;83.78
81545;BME280;70990;50.618;7.346;2023-10-31T07:07:01;96750.38;;;9.61;83.23
81545;BME280;70990;50.618;7.346;2023-10-31T07:09:27;96756.88;;;9.67;82.65
81545;BME280;70990;50.618;7.346;2023-10-31T07:11:54;96768.88;;;9.74;82.93
81545;BME280;70990;50.618;7.346;2023-10-31T07:14:20;96777.94;;;9.61;83.13
81545;BME280;70990;50.618;7.346;2023-10-31T07:16:48;96773.84;;;9.66;82.51
81545;BME280;70990;50.618;7.346;2023-10-31T07:19:14;96787.63;;;9.79;82.52
81545;BME280;70990;50.618;7.346;2023-10-31T07:21:41;96783.66;;;9.80;82.24
81545;BME280;70990;50.618;7.346;2023-10-31T07:24:08;96790.59;;;9.84;81.53
81545;BME280;70990;50.618;7.346;2023-10-31T07:26:35;96790.16;;;9.86;82.59
81545;BME280;70990;50.618;7.346;2023-10-31T07:29:01;96803.19;;;9.85;81.94
81545;BME280;70990;50.618;7.346;2023-10-31T07:31:28;96797.09;;;10.03;82.74
81545;BME280;70990;50.618;7.346;2023-10-31T07:33:55;96802.28;;;9.76;82.37
81545;BME280;70990;50.618;7.346;2023-10-31T07:36:22;96804.06;;;9.69;82.04
81545;BME280;70990;50.618;7.346;2023-10-31T07:38:48;96810.34;;;9.83;81.69
81545;BME280;70990;50.618;7.346;2023-10-31T07:41:14;96817.41;;;9.84;81.80
81545;BME280;70990;50.618;7.346;2023-10-31T07:43:41;96821.28;;;9.86;80.66
81545;BME280;70990;50.618;7.346;2023-10-31T07:46:07;96824.47;;;9.85;81.12
81545;BME280;70990;50.618;7.346;2023-10-31T07:48:34;96823.34;;;9.95;81.00
81545;BME280;70990;50.618;7.346;2023-10-31T07:51:01;96830.41;;;10.08;79.72
81545;BME280;70990;50.618;7.346;2023-10-31T07:53:27;96826.88;;;10.08;81.23
81545;BME280;70990;50.618;7.346;2023-10-31T07:55:54;96837.38;;;9.88;81.55
81545;BME280;70990;50.618;7.346;2023-10-31T07:58:20;96837.06;;;9.86;82.01
81545;BME280;70990;50.618;7.346;2023-10-31T08:00:48;96849.75;;;9.96;81.97
81545;BME280;70990;50.618;7.346;2023-10-31T08:03:14;96856.78;;;10.09;82.46
81545;BME280;70990;50.618;7.346;2023-10-31T08:05:41;96850.53;;;10.22;82.36
81545;BME280;70990;50.618;7.346;2023-10-31T08:08:07;96859.78;;;10.15;82.05
81545;BME280;70990;50.618;7.346;2023-10-31T08:10:34;96864.41;;;10.18;82.12
81545;BME280;70990;50.618;7.346;2023-10-31T08:13:01;96869.69;;;10.00;82.59
81545;BME280;70990;50.618;7.346;2023-10-31T08:15:28;96869.59;;;10.16;82.59
81545;BME280;70990;50.618;7.346;2023-10-31T08:17:55;96871.69;;;10.12;82.71
81545;BME280;70990;50.618;7.346;2023-10-31T08:20:21;96874.94;;;10.23;81.73
81545;BME280;70990;50.618;7.346;2023-10-31T08:22:49;96876.13;;;9.97;81.99
81545;BME280;70990;50.618;7.346;2023-10-31T08:25:15;96881.50;;;10.00;82.47
81545;BME280;70990;50.618;7.346;2023-10-31T08:27:42;96883.84;;;10.02;81.21
81545;BME280;70990;50.618;7.346;2023-10-31T08:30:09;96880.44;;;10.10;81.48
81545;BME280;70990;50.618;7.346;2023-10-31T08:32:36;96892.03;;;10.18;81.79
81545;BME280;70990;50.618;7.346;2023-10-31T08:35:02;96890.13;;;10.15;80.40
81545;BME280;70990;50.618;7.346;2023-10-31T08:37:29;96887.19;;;10.22;80.96
81545;BME280;70990;50.618;7.346;2023-10-31T08:39:56;96900.84;;;10.13;82.27
81545;BME280;70990;50.618;7.346;2023-10-31T08:42:22;96895.78;;;9.99;81.75
81545;BME280;70990;50.618;7.346;2023-10-31T08:44:49;96903.94;;;10.15;82.16
81545;BME280;70990;50.618;7.346;2023-10-31T08:47:15;96906.56;;;10.06;82.53
81545;BME280;70990;50.618;7.346;2023-10-31T08:49:42;96905.47;;;9.91;82.81
81545;BME280;70990;50.618;7.346;2023-10-31T08:52:08;96907.59;;;9.87;83.51
81545;BME280;70990;50.618;7.346;2023-10-31T08:54:35;96910.00;;;9.97;83.30
81545;BME280;70990;50.618;7.346;2023-10-31T08:57:02;96919.50;;;10.09;82.90
81545;BME280;70990;50.618;7.346;2023-10-31T08:59:28;96922.81;;;10.04;82.98
81545;BME280;70990;50.618;7.346;2023-10-31T09:01:55;96918.59;;;9.99;82.97
81545;BME280;70990;50.618;7.346;2023-10-31T09:04:22;96922.59;;;9.98;82.49
81545;BME280;70990;50.618;7.346;2023-10-31T09:06:48;96928.34;;;10.04;82.80
81545;BME280;70990;50.618;7.346;2023-10-31T09:09:15;96934.94;;;10.06;82.62
81545;BME280;70990;50.618;7.346;2023-10-31T09:11:41;96945.88;;;10.10;82.61
81545;BME280;70990;50.618;7.346;2023-10-31T09:14:08;96941.19;;;10.23;81.79
81545;BME280;70990;50.618;7.346;2023-10-31T09:16:34;96947.91;;;10.22;80.48
81545;BME280;70990;50.618;7.346;2023-10-31T09:19:01;96935.31;;;10.21;81.01
81545;BME280;70990;50.618;7.346;2023-10-31T09:21:27;96935.53;;;10.27;80.08
81545;BME280;70990;50.618;7.346;2023-10-31T09:23:54;96952.31;;;10.45;80.06
81545;BME280;70990;50.618;7.346;2023-10-31T09:26:20;96959.38;;;10.33;79.75
81545;BME280;70990;50.618;7.346;2023-10-31T09:28:47;96960.59;;;10.32;79.89
81545;BME280;70990;50.618;7.346;2023-10-31T09:31:13;96962.25;;;10.42;79.32
81545;BME280;70990;50.618;7.346;2023-10-31T09:33:40;96957.94;;;10.41;79.67
81545;BME280;70990;50.618;7.346;2023-10-31T09:36:07;96962.25;;;10.42;79.87
81545;BME280;70990;50.618;7.346;2023-10-31T09:38:33;96961.91;;;10.53;79.27
81545;BME280;70990;50.618;7.346;2023-10-31T09:41:00;96955.63;;;10.52;78.14
81545;BME280;70990;50.618;7.346;2023-10-31T09:43:27;96956.59;;;10.71;76.58
81545;BME280;70990;50.618;7.346;2023-10-31T09:45:54;96965.16;;;10.99;76.29
81545;BME280;70990;50.618;7.346;2023-10-31T09:48:21;96976.50;;;11.13;74.84
81545;BME280;70990;50.618;7.346;2023-10-31T09:50:47;96965.25;;;10.95;75.62
81545;BME280;70990;50.618;7.346;2023-10-31T09:53:15;96973.09;;;11.09;74.70
81545;BME280;70990;50.618;7.346;2023-10-31T09:55:42;96975.84;;;11.09;74.44
81545;BME280;70990;50.618;7.346;2023-10-31T09:58:09;96977.22;;;11.26;74.45
81545;BME280;70990;50.618;7.346;2023-10-31T10:00:36;96982.59;;;11.43;74.17
81545;BME280;70990;50.618;7.346;2023-10-31T10:03:04;96997.38;;;11.70;73.03
81545;BME280;70990;50.618;7.346;2023-10-31T10:05:31;96995.16;;;12.00;73.50
81545;BME280;70990;50.618;7.346;2023-10-31T10:07:58;96997.75;;;12.25;70.92
81545;BME280;70990;50.618;7.346;2023-10-31T10:10:24;97000.59;;;12.12;70.12
81545;BME280;70990;50.618;7.346;2023-10-31T10:12:52;97005.19;;;12.06;70.95
81545;BME280;70990;50.618;7.346;2023-10-31T10:15:19;96992.41;;;11.78;71.22
81545;BME280;70990;50.618;7.346;2023-10-31T10:17:49;96999.34;;;11.83;72.28
81545;BME280;70990;50.618;7.346;2023-10-31T10:20:16;97007.59;;;11.74;71.95
81545;BME280;70990;50.618;7.346;2023-10-31T10:22:43;97012.59;;;11.66;71.65
81545;BME280;70990;50.618;7.346;2023-10-31T10:25:14;97015.16;;;11.60;72.58
81545;BME280;70990;50.618;7.346;2023-10-31T10:27:42;97014.88;;;11.46;72.83
81545;BME280;70990;50.618;7.346;2023-10-31T10:30:09;97021.84;;;11.72;72.92
81545;BME280;70990;50.618;7.346;2023-10-31T10:32:35;97018.53;;;11.77;71.40
81545;BME280;70990;50.618;7.346;2023-10-31T10:35:02;97019.91;;;11.60;72.25
81545;BME280;70990;50.618;7.346;2023-10-31T10:37:29;97028.06;;;11.76;71.99
81545;BME280;70990;50.618;7.346;2023-10-31T10:39:57;97025.63;;;11.78;72.07
81545;BME280;70990;50.618;7.346;2023-10-31T10:42:31;97027.06;;;11.70;72.19
81545;BME280;70990;50.618;7.346;2023-10-31T10:45:02;97029.44;;;11.59;72.40
81545;BME280;70990;50.618;7.346;2023-10-31T10:47:32;97026.50;;;11.75;72.09
81545;BME280;70990;50.618;7.346;2023-10-31T10:50:00;97024.84;;;11.78;72.63
81545;BME280;70990;50.618;7.346;2023-10-31T10:52:49;97016.81;;;11.92;71.71
81545;BME280;70990;50.618;7.346;2023-10-31T10:55:25;97015.09;;;11.73;72.86
81545;BME280;70990;50.618;7.346;2023-10-31T11:00:21;97030.25;;;11.68;73.14
81545;BME280;70990;50.618;7.346;2023-10-31T11:02:49;97023.75;;;11.62;72.22
81545;BME280;70990;50.618;7.346;2023-10-31T11:05:16;97022.06;;;11.78;72.39
81545;BME280;70990;50.618;7.346;2023-10-31T11:07:44;97024.97;;;11.74;72.39
81545;BME280;70990;50.618;7.346;2023-10-31T11:10:11;97023.94;;;11.81;73.37
81545;BME280;70990;50.618;7.346;2023-10-31T11:12:38;97034.34;;;11.55;72.59
81545;BME280;70990;50.618;7.346;2023-10-31T11:15:05;97033.78;;;11.47;74.31
81545;BME280;70990;50.618;7.346;2023-10-31T11:17:40;97024.69;;;11.59;73.11
81545;BME280;70990;50.618;7.346;2023-10-31T11:20:10;97025.72;;;11.75;73.86
81545;BME280;70990;50.618;7.346;2023-10-31T11:22:42;97035.59;;;11.97;73.76
81545;BME280;70990;50.618;7.346;2023-10-31T11:25:11;97028.59;;;11.71;73.04
81545;BME280;70990;50.618;7.346;2023-10-31T11:27:50;97039.69;;;11.71;73.22
81545;BME280;70990;50.618;7.346;2023-10-31T11:30:28;97037.19;;;11.51;73.20
81545;BME280;70990;50.618;7.346;2023-10-31T11:32:57;97042.44;;;11.49;73.49
81545;BME280;70990;50.618;7.346;2023-10-31T11:35:27;97033.63;;;11.63;73.44
81545;BME280;70990;50.618;7.346;2023-10-31T11:38:03;97041.91;;;11.63;73.07
81545;BME280;70990;50.618;7.346;2023-10-31T11:40:31;97049.06;;;11.86;72.90
81545;BME280;70990;50.618;7.346;2023-10-31T11:43:03;97043.19;;;11.50;73.18
81545;BME280;70990;50.618;7.346;2023-10-31T11:45:42;97040.91;;;11.70;73.43
81545;BME280;70990;50.618;7.346;2023-10-31T11:48:10;97034.81;;;11.62;73.16
81545;BME280;70990;50.618;7.346;2023-10-31T11:50:37;97055.31;;;11.65;72.51
81545;BME280;70990;50.618;7.346;2023-10-31T11:53:06;97045.97;;;11.84;72.67
81545;BME280;70990;50.618;7.346;2023-10-31T11:55:40;97047.31;;;11.80;73.27
81545;BME280;70990;50.618;7.346;2023-10-31T11:58:19;97056.53;;;11.98;72.18
81545;BME280;70990;50.618;7.346;2023-10-31T12:00:51;97044.38;;;12.27;70.93
81545;BME280;70990;50.618;7.346;2023-10-31T12:03:20;97051.34;;;11.88;71.43
81545;BME280;70990;50.618;7.346;2023-10-31T12:05:59;97052.47;;;11.90;71.93
81545;BME280;70990;50.618;7.346;2023-10-31T12:10:53;97053.44;;;11.62;71.67
81545;BME280;70990;50.618;7.346;2023-10-31T12:13:19;97046.59;;;12.10;69.06
81545;BME280;70990;50.618;7.346;2023-10-31T12:15:52;97048.75;;;12.68;68.25
81545;BME280;70990;50.618;7.346;2023-10-31T12:18:19;97045.63;;;12.97;67.01
81545;BME280;70990;50.618;7.346;2023-10-31T12:20:50;97046.13;;;12.64;67.51
81545;BME280;70990;50.618;7.346;2023-10-31T12:23:17;97043.44;;;12.51;68.21
81545;BME280;70990;50.618;7.346;2023-10-31T12:25:48;97062.66;;;13.17;66.24
81545;BME280;70990;50.618;7.346;2023-10-31T12:28:21;97047.56;;;13.18;65.46
81545;BME280;70990;50.618;7.346;2023-10-31T12:30:51;97041.44;;;13.41;65.74
81545;BME280;70990;50.618;7.346;2023-10-31T12:33:18;97035.88;;;13.87;64.50
81545;BME280;70990;50.618;7.346;2023-10-31T12:35:45;97046.09;;;13.99;62.80
81545;BME280;70990;50.618;7.346;2023-10-31T12:38:12;97053.16;;;13.82;63.72
81545;BME280;70990;50.618;7.346;2023-10-31T12:40:46;97049.91;;;14.01;64.11
81545;BME280;70990;50.618;7.346;2023-10-31T12:43:12;97044.97;;;14.75;60.96
81545;BME280;70990;50.618;7.346;2023-10-31T12:45:39;97041.22;;;14.87;60.34
81545;BME280;70990;50.618;7.346;2023-10-31T12:48:07;97039.13;;;14.73;60.46
81545;BME280;70990;50.618;7.346;2023-10-31T12:50:35;97047.63;;;13.91;63.66
81545;BME280;70990;50.618;7.346;2023-10-31T12:53:02;97043.66;;;14.61;62.32
81545;BME280;70990;50.618;7.346;2023-10-31T12:55:31;97038.13;;;14.52;61.57
81545;BME280;70990;50.618;7.346;2023-10-31T12:57:58;97041.22;;;14.36;64.02
81545;BME280;70990;50.618;7.346;2023-10-31T13:00:31;97041.09;;;14.30;62.82
81545;BME280;70990;50.618;7.346;2023-10-31T13:03:00;97037.19;;;14.37;62.15
81545;BME280;70990;50.618;7.346;2023-10-31T13:05:28;97027.75;;;15.18;60.88
81545;BME280;70990;50.618;7.346;2023-10-31T13:07:56;97039.28;;;15.35;61.32
81545;BME280;70990;50.618;7.346;2023-10-31T13:10:31;97039.38;;;14.84;60.34